Time;durP1;ratioP1;P1;durP2;ratioP2;P2;SDS_P1;SDS_P2;PMS_P1;PMS_P2;Temp;Humidity;BMP_temperature;BMP_pressure;BME280_temperature;BME280_humidity;BME280_pressure;Samples;Min_cycle;Max_cycle;Signal;HPM_P1;HPM_P2
2022/07/03 00:01:12;;;;;;;5.97;3.15;;;17.50;99.90;;;;;;5051951;28;20127;-78
2022/07/03 00:03:38;;;;;;;8.30;3.25;;;17.20;99.90;;;;;;5052015;28;20049;-78
2022/07/03 00:06:04;;;;;;;5.60;3.17;;;17.40;99.90;;;;;;5052054;28;20049;-77
2022/07/03 00:08:30;;;;;;;9.50;3.78;;;17.40;99.90;;;;;;5052177;28;20373;-77
2022/07/03 00:10:55;;;;;;;5.20;2.95;;;17.40;99.90;;;;;;5051885;28;20055;-77
2022/07/03 00:13:21;;;;;;;5.50;2.60;;;17.20;99.90;;;;;;5051933;28;20131;-77
2022/07/03 00:15:47;;;;;;;7.00;2.60;;;17.30;99.90;;;;;;5052086;28;20731;-78
2022/07/03 00:18:12;;;;;;;5.55;2.30;;;17.20;99.90;;;;;;5051813;28;20053;-78
2022/07/03 00:20:44;;;;;;;7.45;2.47;;;17.10;99.90;;;;;;5051726;28;20045;-78
2022/07/03 00:23:13;;;;;;;5.35;2.35;;;17.20;99.90;;;;;;5022354;28;20095;-78
2022/07/03 00:25:40;;;;;;;4.70;2.42;;;17.10;99.90;;;;;;5014227;28;20061;-78
2022/07/03 00:28:08;;;;;;;4.43;1.88;;;17.00;99.90;;;;;;5031833;28;20060;-78
2022/07/03 00:30:34;;;;;;;3.45;1.90;;;17.00;99.90;;;;;;5032015;28;20107;-78
2022/07/03 00:33:03;;;;;;;5.10;2.13;;;16.90;99.90;;;;;;5043048;28;20044;-78
2022/07/03 00:35:32;;;;;;;4.40;1.90;;;16.80;99.90;;;;;;5051764;28;20056;-78
2022/07/03 00:37:58;;;;;;;5.15;2.22;;;16.80;99.90;;;;;;5051372;28;20099;-77
2022/07/03 00:40:24;;;;;;;6.10;2.30;;;16.70;99.90;;;;;;5051653;28;20045;-77
2022/07/03 00:42:53;;;;;;;5.72;2.03;;;16.70;99.90;;;;;;5051089;28;20043;-77
2022/07/03 00:45:20;;;;;;;7.68;2.53;;;16.70;99.90;;;;;;5033927;28;20057;-78
2022/07/03 00:47:47;;;;;;;5.72;2.30;;;16.70;99.90;;;;;;5051595;28;20045;-78
2022/07/03 00:50:14;;;;;;;6.32;2.63;;;16.60;99.90;;;;;;5051750;28;20048;-78
2022/07/03 00:52:46;;;;;;;4.10;2.08;;;16.80;99.90;;;;;;5033404;28;20449;-79
2022/07/03 00:55:16;;;;;;;6.20;2.05;;;16.50;99.90;;;;;;5050967;28;20488;-78
2022/07/03 00:57:47;;;;;;;5.20;2.20;;;16.60;99.90;;;;;;5051408;28;20045;-77
2022/07/03 01:00:16;;;;;;;3.35;1.90;;;16.50;99.90;;;;;;5033051;28;20133;-77
2022/07/03 01:03:01;;;;;;;6.88;2.35;;;16.40;99.90;;;;;;5051261;28;20037;-78
2022/07/03 01:05:39;;;;;;;6.50;2.58;;;16.30;99.90;;;;;;5032893;28;20052;-78
2022/07/03 01:08:05;;;;;;;4.60;2.10;;;16.30;99.90;;;;;;5033141;28;20123;-77
2022/07/03 01:10:49;;;;;;;5.57;2.30;;;16.30;99.90;;;;;;5016828;28;20044;-77
2022/07/03 01:13:35;;;;;;;3.27;2.20;;;16.20;99.90;;;;;;5051200;28;20045;-77
2022/07/03 01:16:17;;;;;;;9.85;3.13;;;16.20;99.90;;;;;;5050710;28;20146;-77
2022/07/03 01:18:59;;;;;;;5.78;2.35;;;16.20;99.90;;;;;;5032900;28;20119;-77
2022/07/03 01:21:27;;;;;;;6.93;3.10;;;16.20;99.90;;;;;;5032784;28;20053;-77
2022/07/03 01:23:59;;;;;;;5.40;2.47;;;16.10;99.90;;;;;;5050467;28;20053;-78
2022/07/03 01:26:30;;;;;;;6.80;2.75;;;16.10;99.90;;;;;;5050155;28;20397;-78
2022/07/03 01:29:03;;;;;;;8.45;3.00;;;16.10;99.90;;;;;;5050687;28;20044;-78
2022/07/03 01:31:30;;;;;;;6.28;2.97;;;16.10;99.90;;;;;;5016099;28;20037;-77
2022/07/03 01:33:56;;;;;;;5.50;2.88;;;16.10;99.90;;;;;;5050775;28;20132;-76
2022/07/03 01:36:25;;;;;;;9.90;2.97;;;16.20;99.90;;;;;;5050311;28;20036;-77
2022/07/03 01:38:51;;;;;;;5.47;2.90;;;16.10;99.90;;;;;;5032416;28;20044;-78
2022/07/03 01:41:17;;;;;;;4.57;2.85;;;16.00;99.90;;;;;;5031974;28;20566;-77
2022/07/03 01:43:55;;;;;;;8.93;2.90;;;16.00;99.90;;;;;;5050229;28;20191;-77
2022/07/03 01:46:28;;;;;;;4.88;2.47;;;16.00;99.90;;;;;;5032484;28;20054;-76
2022/07/03 01:48:55;;;;;;;6.57;2.72;;;15.90;99.90;;;;;;5030603;28;20400;-77
2022/07/03 01:51:23;;;;;;;6.80;3.15;;;15.80;99.90;;;;;;5030546;28;20152;-77
2022/07/03 01:53:50;;;;;;;11.07;3.45;;;15.60;99.90;;;;;;5012264;28;20102;-75
2022/07/03 01:56:18;;;;;;;10.50;3.25;;;15.50;99.90;;;;;;5030007;28;20081;-75
2022/07/03 01:58:44;;;;;;;7.20;3.38;;;15.40;99.90;;;;;;5044910;28;20048;-75
2022/07/03 02:01:25;;;;;;;8.93;3.13;;;15.40;99.90;;;;;;5049524;28;20527;-75
2022/07/03 02:04:22;;;;;;;8.50;3.63;;;15.20;99.90;;;;;;5032278;28;20053;-73
2022/07/03 02:07:12;;;;;;;5.55;3.55;;;15.20;99.90;;;;;;5032344;28;20041;-75
2022/07/03 02:09:48;;;;;;;8.93;3.88;;;15.10;99.90;;;;;;5031958;28;20088;-75
2022/07/03 02:12:18;;;;;;;8.18;4.10;;;15.10;99.90;;;;;;5049875;28;20063;-73
2022/07/03 02:15:01;;;;;;;4.47;3.10;;;15.00;99.90;;;;;;5048394;28;20045;-75
2022/07/03 02:17:33;;;;;;;4.40;3.20;;;15.00;99.90;;;;;;5049954;28;20052;-74
2022/07/03 02:20:07;;;;;;;5.75;3.70;;;15.00;99.90;;;;;;5049146;28;20052;-74
2022/07/03 02:22:37;;;;;;;7.90;3.90;;;14.90;99.90;;;;;;5031479;28;20052;-74
2022/07/03 02:25:06;;;;;;;10.45;3.60;;;14.90;99.90;;;;;;5049304;28;20115;-74
2022/07/03 02:27:46;;;;;;;6.88;3.53;;;14.90;99.90;;;;;;5030006;28;20052;-74
2022/07/03 02:30:13;;;;;;;7.95;3.88;;;14.80;99.90;;;;;;5031618;28;20547;-74
2022/07/03 02:32:45;;;;;;;7.55;3.75;;;14.80;99.90;;;;;;5049310;28;20127;-73
2022/07/03 02:35:16;;;;;;;8.30;3.58;;;14.80;99.90;;;;;;5049135;28;20045;-74
2022/07/03 02:37:50;;;;;;;9.57;3.47;;;14.80;99.90;;;;;;5014711;28;20143;-74
2022/07/03 02:40:40;;;;;;;6.53;3.15;;;14.70;99.90;;;;;;5049132;28;20484;-75
2022/07/03 02:43:19;;;;;;;5.15;3.17;;;14.70;99.90;;;;;;5012031;28;20519;-74
2022/07/03 02:46:49;;;;;;;11.38;3.90;;;14.60;99.90;;;;;;5049472;28;20087;-74
2022/07/03 02:49:27;;;;;;;6.93;3.30;;;14.50;99.90;;;;;;5049695;28;20045;-74
2022/07/03 02:52:20;;;;;;;6.90;3.40;;;14.50;99.90;;;;;;5049983;28;20456;-76
2022/07/03 02:54:47;;;;;;;7.10;3.67;;;14.40;99.90;;;;;;5053352;28;20127;-74
2022/07/03 02:57:16;;;;;;;7.53;3.80;;;14.30;99.90;;;;;;5053185;28;20049;-74
2022/07/03 02:59:54;;;;;;;8.38;3.70;;;14.30;99.90;;;;;;5053741;28;20729;-74
2022/07/03 03:02:38;;;;;;;12.05;4.10;;;14.20;99.90;;;;;;5053513;28;20045;-75
2022/07/03 03:05:15;;;;;;;10.57;4.77;;;14.10;99.90;;;;;;5034939;28;20118;-75
2022/07/03 03:08:04;;;;;;;6.13;3.28;;;14.00;99.90;;;;;;5053169;28;20116;-74
2022/07/03 03:10:34;;;;;;;9.60;4.00;;;14.00;99.90;;;;;;5035344;28;20055;-74
2022/07/03 03:13:11;;;;;;;9.95;3.92;;;13.90;99.90;;;;;;5016054;28;20127;-74
2022/07/03 03:15:38;;;;;;;11.18;3.47;;;13.80;99.90;;;;;;5052154;28;20116;-73
2022/07/03 03:18:10;;;;;;;11.15;3.95;;;13.80;99.90;;;;;;5053093;28;20146;-74
2022/07/03 03:20:38;;;;;;;10.55;3.72;;;13.70;99.90;;;;;;5035428;28;20060;-74
2022/07/03 03:23:22;;;;;;;11.48;3.92;;;13.80;99.90;;;;;;5053082;28;20052;-74
2022/07/03 03:25:51;;;;;;;5.90;4.10;;;13.70;99.90;;;;;;5052204;28;20072;-74
2022/07/03 03:28:17;;;;;;;8.48;4.30;;;13.80;99.90;;;;;;5033028;28;20566;-74
2022/07/03 03:30:42;;;;;;;8.20;4.38;;;13.90;99.90;;;;;;5035213;28;20132;-75
2022/07/03 03:33:09;;;;;;;12.02;4.60;;;13.90;99.90;;;;;;5030252;28;20175;-74
2022/07/03 03:35:39;;;;;;;7.53;3.60;;;13.90;99.90;;;;;;5034602;28;20102;-75
2022/07/03 03:38:05;;;;;;;9.20;4.05;;;13.90;99.90;;;;;;5052139;28;20045;-74
2022/07/03 03:40:35;;;;;;;8.82;4.20;;;13.90;99.90;;;;;;5034893;28;20178;-74
2022/07/03 03:43:02;;;;;;;8.10;4.15;;;13.80;99.90;;;;;;5050961;28;20124;-74
2022/07/03 03:45:27;;;;;;;7.32;4.43;;;13.90;99.90;;;;;;5043071;28;20041;-74
2022/07/03 03:47:54;;;;;;;7.82;4.78;;;13.90;99.90;;;;;;5050774;28;20915;-74
2022/07/03 03:50:20;;;;;;;8.65;4.78;;;14.00;99.90;;;;;;5043603;28;20045;-73
2022/07/03 03:52:45;;;;;;;6.07;4.47;;;14.00;99.90;;;;;;5051223;28;20037;-74
2022/07/03 03:55:11;;;;;;;6.35;4.80;;;14.00;99.90;;;;;;5050041;28;20396;-74
2022/07/03 03:57:37;;;;;;;15.60;4.85;;;14.20;99.90;;;;;;5044260;28;20029;-74
2022/07/03 04:00:07;;;;;;;6.70;4.40;;;14.10;99.90;;;;;;5051127;28;20500;-73
2022/07/03 04:02:33;;;;;;;9.18;4.50;;;14.20;99.90;;;;;;5017872;28;20032;-74
2022/07/03 04:04:58;;;;;;;9.50;4.75;;;14.10;99.90;;;;;;5051394;28;20492;-73
2022/07/03 04:07:24;;;;;;;14.90;4.70;;;14.00;99.90;;;;;;5049098;28;20496;-74
2022/07/03 04:09:50;;;;;;;10.68;4.47;;;14.10;99.90;;;;;;5025625;28;20111;-74
2022/07/03 04:12:15;;;;;;;7.25;4.30;;;14.00;99.90;;;;;;5044949;28;20037;-73
2022/07/03 04:14:41;;;;;;;10.32;4.55;;;14.00;99.90;;;;;;5024318;28;20044;-74
2022/07/03 04:17:06;;;;;;;11.35;5.63;;;14.10;99.90;;;;;;5033285;28;20045;-75
2022/07/03 04:19:32;;;;;;;10.30;5.30;;;14.20;99.90;;;;;;5049243;28;20381;-74
2022/07/03 04:21:58;;;;;;;8.32;5.90;;;14.50;99.90;;;;;;5050546;28;20051;-74
2022/07/03 04:24:24;;;;;;;8.73;5.00;;;14.40;99.90;;;;;;5032763;28;20092;-74
2022/07/03 04:26:49;;;;;;;8.80;4.95;;;14.40;99.90;;;;;;5050984;28;20045;-74
2022/07/03 04:29:15;;;;;;;8.32;5.20;;;14.40;99.90;;;;;;5031997;28;20122;-74
2022/07/03 04:31:41;;;;;;;6.43;4.55;;;14.50;99.90;;;;;;5051145;28;20044;-75
2022/07/03 04:34:06;;;;;;;6.82;5.13;;;14.70;99.90;;;;;;5033185;28;20973;-75
2022/07/03 04:36:32;;;;;;;9.98;5.13;;;14.50;99.90;;;;;;5050383;28;20128;-75
2022/07/03 04:38:58;;;;;;;11.70;5.47;;;14.60;99.90;;;;;;5032892;28;20070;-74
2022/07/03 04:41:23;;;;;;;9.05;5.13;;;14.60;99.90;;;;;;5049360;28;20045;-74
2022/07/03 04:43:49;;;;;;;8.20;5.25;;;14.70;99.90;;;;;;5032204;28;20044;-74
2022/07/03 04:46:15;;;;;;;12.70;5.47;;;14.80;99.90;;;;;;5032258;28;20052;-74
2022/07/03 04:48:40;;;;;;;6.38;5.28;;;14.90;99.90;;;;;;5050353;28;20128;-74
2022/07/03 04:51:06;;;;;;;8.77;5.50;;;15.00;99.90;;;;;;5050165;28;20048;-75
2022/07/03 04:53:32;;;;;;;12.52;5.80;;;15.00;99.90;;;;;;5031987;28;20472;-74
2022/07/03 04:55:58;;;;;;;11.57;5.78;;;15.40;99.90;;;;;;5050513;28;20041;-75
2022/07/03 04:58:23;;;;;;;10.98;6.00;;;15.30;99.90;;;;;;5032028;28;20049;-73
2022/07/03 05:00:49;;;;;;;8.50;5.68;;;15.40;99.90;;;;;;5049263;28;20095;-75
2022/07/03 05:03:15;;;;;;;8.70;5.65;;;15.50;99.90;;;;;;5050060;28;20045;-76
2022/07/03 05:05:40;;;;;;;11.68;5.63;;;15.80;99.90;;;;;;5030012;28;20056;-75
2022/07/03 05:08:06;;;;;;;8.10;5.43;;;15.70;99.90;;;;;;5044310;28;20048;-75
2022/07/03 05:10:32;;;;;;;7.15;5.00;;;15.80;99.90;;;;;;5048949;28;20766;-74
2022/07/03 05:12:57;;;;;;;7.90;4.25;;;16.00;99.90;;;;;;5024061;28;20110;-75
2022/07/03 05:15:23;;;;;;;17.00;5.72;;;16.10;99.90;;;;;;5047657;28;20123;-75
2022/07/03 05:17:49;;;;;;;6.55;4.75;;;16.20;99.90;;;;;;5031440;28;20088;-76
2022/07/03 05:20:24;;;;;;;7.50;4.28;;;16.30;99.90;;;;;;5043913;28;20045;-76
2022/07/03 05:23:00;;;;;;;10.45;4.50;;;16.50;99.90;;;;;;5047942;28;20101;-75
2022/07/03 05:25:29;;;;;;;9.90;4.57;;;16.70;99.90;;;;;;5050561;28;20069;-75
2022/07/03 05:27:55;;;;;;;9.50;4.47;;;16.80;99.90;;;;;;5032859;28;20099;-75
2022/07/03 05:30:22;;;;;;;10.68;3.90;;;17.00;99.90;;;;;;5030152;28;20076;-76
2022/07/03 05:32:49;;;;;;;12.32;4.07;;;17.10;99.90;;;;;;5049088;28;20766;-76
2022/07/03 05:35:14;;;;;;;7.72;3.85;;;17.20;99.90;;;;;;5031215;28;20057;-77
2022/07/03 05:37:40;;;;;;;8.13;3.40;;;17.30;99.90;;;;;;5049621;28;20041;-76
2022/07/03 05:40:07;;;;;;;8.82;3.40;;;17.40;99.90;;;;;;5049433;28;20029;-75
2022/07/03 05:42:33;;;;;;;7.60;2.70;;;17.50;99.90;;;;;;5023034;28;20392;-75
2022/07/03 05:44:59;;;;;;;7.18;2.90;;;17.60;99.90;;;;;;5045454;28;20052;-76
2022/07/03 05:47:24;;;;;;;8.25;3.10;;;17.70;99.90;;;;;;5048972;28;20045;-76
2022/07/03 05:49:50;;;;;;;4.57;2.50;;;17.70;99.90;;;;;;5049789;28;20056;-77
2022/07/03 05:52:16;;;;;;;5.75;2.60;;;17.70;99.90;;;;;;5049150;28;20064;-77
2022/07/03 05:54:42;;;;;;;7.75;2.38;;;17.80;99.90;;;;;;5048818;28;20097;-77
2022/07/03 05:57:11;;;;;;;4.35;2.13;;;17.80;99.90;;;;;;5049542;28;20385;-76
2022/07/03 05:59:37;;;;;;;4.85;2.47;;;17.90;99.90;;;;;;5049330;28;20045;-76
2022/07/03 06:02:02;;;;;;;5.63;2.03;;;18.00;99.90;;;;;;5025093;28;20049;-79
2022/07/03 06:04:28;;;;;;;8.57;2.00;;;18.10;99.90;;;;;;5046850;28;20040;-76
2022/07/03 06:06:55;;;;;;;3.50;1.50;;;18.20;99.90;;;;;;5043386;28;20637;-76
2022/07/03 06:09:22;;;;;;;4.07;1.88;;;18.10;99.90;;;;;;5049429;28;20081;-78
2022/07/03 06:11:47;;;;;;;7.10;1.80;;;18.30;99.90;;;;;;5049653;28;20033;-77
2022/07/03 06:14:14;;;;;;;6.88;1.70;;;18.40;99.90;;;;;;5048745;28;20458;-75
2022/07/03 06:16:39;;;;;;;8.45;2.47;;;18.30;99.90;;;;;;5037171;28;20053;-76
2022/07/03 06:19:05;;;;;;;8.68;2.65;;;18.40;99.90;;;;;;5043688;28;20140;-77
2022/07/03 06:21:31;;;;;;;4.60;1.60;;;18.40;99.90;;;;;;5048214;28;20048;-78
2022/07/03 06:23:57;;;;;;;7.93;1.70;;;18.60;99.90;;;;;;5031178;28;20136;-77
2022/07/03 06:26:23;;;;;;;5.57;1.80;;;18.80;99.90;;;;;;5012887;28;20133;-77
2022/07/03 06:28:49;;;;;;;7.10;1.90;;;19.00;99.90;;;;;;5048557;28;20057;-77
2022/07/03 06:31:14;;;;;;;3.95;1.90;;;19.10;99.90;;;;;;5049025;28;20725;-77
2022/07/03 06:33:40;;;;;;;3.70;1.40;;;19.30;99.90;;;;;;5030387;28;20048;-78
2022/07/03 06:36:06;;;;;;;5.05;1.20;;;19.30;99.90;;;;;;5048279;28;20037;-77
2022/07/03 06:38:32;;;;;;;3.13;1.33;;;19.30;99.90;;;;;;5031039;28;20048;-76
2022/07/03 06:40:58;;;;;;;2.58;1.08;;;19.40;99.90;;;;;;5036508;28;20051;-78
2022/07/03 06:43:24;;;;;;;3.78;1.40;;;19.50;99.90;;;;;;5028391;28;20052;-76
2022/07/03 06:45:49;;;;;;;5.07;1.58;;;19.60;99.90;;;;;;5039388;28;20036;-78
2022/07/03 06:48:15;;;;;;;3.10;1.25;;;19.50;99.90;;;;;;5048437;28;20048;-77
2022/07/03 06:50:45;;;;;;;4.07;1.40;;;19.50;99.90;;;;;;5047648;28;20048;-76
2022/07/03 06:53:11;;;;;;;3.47;1.23;;;19.60;99.90;;;;;;5049162;28;20045;-75
2022/07/03 06:55:37;;;;;;;4.25;1.50;;;19.60;99.90;;;;;;5047637;28;20045;-76
2022/07/03 06:58:03;;;;;;;3.28;1.35;;;19.80;99.90;;;;;;5047562;28;20049;-77
2022/07/03 07:00:28;;;;;;;5.97;1.45;;;19.90;99.90;;;;;;5040524;28;20083;-77
2022/07/03 07:02:54;;;;;;;4.85;1.60;;;20.00;99.90;;;;;;5046935;28;20045;-78
2022/07/03 07:05:20;;;;;;;5.80;1.85;;;20.30;99.90;;;;;;5048652;28;20041;-77
2022/07/03 07:07:46;;;;;;;4.18;1.42;;;20.30;99.90;;;;;;5048376;28;20452;-76
2022/07/03 07:10:12;;;;;;;6.07;1.73;;;20.30;99.90;;;;;;5047874;28;20056;-78
2022/07/03 07:12:38;;;;;;;5.00;1.70;;;20.40;99.90;;;;;;5048400;28;20482;-77
2022/07/03 07:15:03;;;;;;;5.53;1.60;;;20.40;99.90;;;;;;5047962;28;20400;-77
2022/07/03 07:17:29;;;;;;;5.40;1.60;;;20.40;99.90;;;;;;5047593;28;20041;-78
2022/07/03 07:19:56;;;;;;;2.45;1.20;;;20.30;99.90;;;;;;5047896;28;20054;-78
2022/07/03 07:22:23;;;;;;;4.53;1.42;;;20.40;99.90;;;;;;5039879;28;20818;-78
2022/07/03 07:24:48;;;;;;;5.28;1.45;;;20.40;99.90;;;;;;5047582;28;20373;-77
2022/07/03 07:27:14;;;;;;;3.40;1.50;;;20.50;99.90;;;;;;5047913;28;20064;-78
2022/07/03 07:29:40;;;;;;;6.88;1.38;;;20.50;99.90;;;;;;5047974;28;20044;-77
2022/07/03 07:32:09;;;;;;;6.60;1.70;;;20.60;99.90;;;;;;5047676;28;20045;-78
2022/07/03 07:34:37;;;;;;;3.83;1.83;;;20.80;99.90;;;;;;5039751;28;20041;-79
2022/07/03 07:37:03;;;;;;;6.40;1.50;;;20.80;99.90;;;;;;5048318;28;20045;-79
2022/07/03 07:39:29;;;;;;;7.25;1.63;;;20.80;99.90;;;;;;5049899;28;20096;-78
2022/07/03 07:41:54;;;;;;;8.85;1.20;;;20.80;99.90;;;;;;5033651;28;20045;-78
2022/07/03 07:44:20;;;;;;;5.85;1.30;;;21.00;99.90;;;;;;5051804;28;20049;-78
2022/07/03 07:46:46;;;;;;;2.95;0.90;;;21.20;99.90;;;;;;5042141;28;20486;-78
2022/07/03 07:49:11;;;;;;;3.45;1.15;;;21.30;99.90;;;;;;5051627;28;20053;-77
2022/07/03 07:51:37;;;;;;;3.05;1.10;;;21.60;99.90;;;;;;5051212;28;20039;-79
2022/07/03 07:54:06;;;;;;;3.60;0.90;;;21.50;99.90;;;;;;5051095;28;20079;-79
2022/07/03 07:56:31;;;;;;;3.20;0.70;;;21.80;99.90;;;;;;5051692;28;20118;-77
2022/07/03 07:58:57;;;;;;;3.65;1.08;;;21.90;99.90;;;;;;5050348;28;20045;-79
2022/07/03 08:06:52;;;;;;;5.93;0.57;;;22.30;99.90;;;;;;5032111;28;20488;-77
2022/07/03 08:09:17;;;;;;;2.70;0.60;;;22.40;99.90;;;;;;5051228;28;20132;-78
2022/07/03 08:11:43;;;;;;;2.15;0.60;;;22.50;99.90;;;;;;5050783;28;20400;-77
2022/07/03 08:14:10;;;;;;;2.78;0.60;;;22.70;99.90;;;;;;5049065;28;20380;-78
2022/07/03 08:16:38;;;;;;;2.97;0.60;;;23.00;99.90;;;;;;5032691;28;20060;-78
2022/07/03 08:19:05;;;;;;;3.10;0.95;;;23.00;99.90;;;;;;5014625;28;20048;-77
2022/07/03 08:21:30;;;;;;;4.78;0.68;;;22.90;99.90;;;;;;5044163;28;20063;-78
2022/07/03 08:23:56;;;;;;;2.45;0.60;;;23.10;99.90;;;;;;5051671;28;20041;-78
2022/07/03 08:26:21;;;;;;;2.60;0.50;;;23.10;99.90;;;;;;5051359;28;20049;-78
2022/07/03 08:28:47;;;;;;;4.45;0.60;;;23.30;99.90;;;;;;5051807;28;20060;-80
2022/07/03 08:31:13;;;;;;;2.60;0.68;;;23.40;99.90;;;;;;5051950;28;20133;-81
2022/07/03 08:33:39;;;;;;;2.17;0.45;;;23.60;99.90;;;;;;5051988;28;20076;-80
2022/07/03 08:36:05;;;;;;;4.50;0.63;;;23.70;99.90;;;;;;5051116;28;20519;-79
2022/07/03 08:38:33;;;;;;;1.83;0.30;;;23.70;99.90;;;;;;5051405;28;20043;-80
2022/07/03 08:41:03;;;;;;;2.30;0.50;;;23.60;99.90;;;;;;5033512;28;20045;-81
2022/07/03 08:43:29;;;;;;;2.85;0.65;;;23.70;99.90;;;;;;5051094;28;20051;-79
2022/07/03 08:45:59;;;;;;;1.85;0.50;;;23.80;99.90;;;;;;5050765;28;20502;-78
2022/07/03 08:48:25;;;;;;;5.00;0.68;;;23.80;99.90;;;;;;5041246;28;20053;-79
2022/07/03 08:50:52;;;;;;;2.05;0.80;;;23.80;99.90;;;;;;5050491;28;20041;-79
2022/07/03 08:53:18;;;;;;;1.98;0.43;;;23.80;99.90;;;;;;5051232;28;20581;-79
2022/07/03 08:55:45;;;;;;;3.38;0.43;;;23.80;99.90;;;;;;5051368;28;20080;-79
2022/07/03 08:58:14;;;;;;;2.90;1.15;;;24.10;99.90;;;;;;5051178;28;20068;-79
2022/07/03 09:00:41;;;;;;;2.42;0.65;;;24.00;99.90;;;;;;5051620;28;20099;-77
2022/07/03 09:03:11;;;;;;;3.15;0.47;;;24.20;99.90;;;;;;5050849;28;20049;-80
2022/07/03 09:05:38;;;;;;;2.97;0.70;;;24.30;99.90;;;;;;5033210;28;20048;-81
2022/07/03 09:08:07;;;;;;;5.03;0.90;;;24.50;99.90;;;;;;5032857;28;20041;-80
2022/07/03 09:10:33;;;;;;;3.78;0.70;;;24.60;99.90;;;;;;5050171;28;20067;-80
2022/07/03 09:15:39;;;;;;;2.83;0.52;;;24.80;99.90;;;;;;4995768;23;20053;-79
2022/07/03 09:18:07;;;;;;;2.42;0.82;;;25.10;99.90;;;;;;4991261;28;20483;-81
2022/07/03 09:20:38;;;;;;;4.72;0.80;;;25.10;99.90;;;;;;4991244;28;20049;-78
2022/07/03 09:23:20;;;;;;;3.38;0.55;;;25.10;99.90;;;;;;4990944;28;20478;-78
2022/07/03 09:25:56;;;;;;;2.05;0.40;;;25.40;99.90;;;;;;4990997;28;20409;-80
2022/07/03 09:28:51;;;;;;;4.50;1.00;;;25.40;99.90;;;;;;4985528;28;20061;-79
2022/07/03 09:31:22;;;;;;;1.75;0.50;;;25.50;99.90;;;;;;4984365;28;20078;-80
2022/07/03 09:34:07;;;;;;;4.38;0.73;;;25.60;99.90;;;;;;4990856;28;20038;-80
2022/07/03 09:36:43;;;;;;;2.53;0.60;;;25.80;99.90;;;;;;4973557;28;20054;-82
2022/07/03 09:39:26;;;;;;;4.72;0.60;;;25.90;99.70;;;;;;4972502;28;20092;-78
2022/07/03 09:42:11;;;;;;;4.35;1.25;;;25.70;99.10;;;;;;4973551;28;20058;-78
2022/07/03 09:44:38;;;;;;;3.08;0.50;;;25.40;99.80;;;;;;4990699;28;20046;-80
2022/07/03 09:47:15;;;;;;;2.22;0.40;;;25.20;99.10;;;;;;4991340;28;20045;-79
2022/07/03 09:49:57;;;;;;;2.08;0.47;;;25.50;99.90;;;;;;4991258;28;20077;-81
2022/07/03 09:52:38;;;;;;;3.58;0.70;;;25.70;99.90;;;;;;4989005;28;20796;-76
2022/07/03 09:55:10;;;;;;;2.38;0.70;;;25.50;99.60;;;;;;4986610;28;20045;-80
2022/07/03 09:57:49;;;;;;;3.33;0.75;;;25.30;99.90;;;;;;4990941;28;20045;-81
2022/07/03 10:00:24;;;;;;;2.17;0.63;;;25.10;99.90;;;;;;4990568;28;20097;-77
2022/07/03 10:02:56;;;;;;;3.30;0.73;;;25.00;99.90;;;;;;4983195;28;20766;-76
2022/07/03 10:05:24;;;;;;;2.03;0.50;;;25.30;99.90;;;;;;4990251;28;20096;-74
2022/07/03 10:08:01;;;;;;;4.78;0.40;;;25.50;99.80;;;;;;4989420;28;20045;-79
2022/07/03 10:10:32;;;;;;;2.10;0.47;;;25.70;99.20;;;;;;4990034;28;20050;-76
2022/07/03 10:12:58;;;;;;;2.17;0.70;;;25.70;98.50;;;;;;4972834;28;20050;-80
2022/07/03 10:15:26;;;;;;;2.03;0.60;;;25.60;98.30;;;;;;4992421;28;20528;-78
2022/07/03 10:17:54;;;;;;;3.30;0.60;;;25.70;99.10;;;;;;4989549;28;20174;-77
2022/07/03 10:20:25;;;;;;;1.77;0.80;;;25.60;99.30;;;;;;4973373;28;20163;-78
2022/07/03 10:22:51;;;;;;;3.03;0.60;;;25.60;98.90;;;;;;4990989;28;20092;-79
2022/07/03 10:25:18;;;;;;;5.00;0.70;;;25.40;99.30;;;;;;4989994;28;20043;-79
2022/07/03 10:27:45;;;;;;;3.08;0.50;;;24.80;99.30;;;;;;4973063;28;20057;-79
2022/07/03 10:30:16;;;;;;;4.13;0.68;;;24.70;97.70;;;;;;4973007;28;20073;-77
2022/07/03 10:32:44;;;;;;;5.32;0.60;;;24.30;99.10;;;;;;4990584;28;20042;-84
2022/07/03 10:35:12;;;;;;;3.17;0.70;;;24.30;99.60;;;;;;4990308;28;20050;-79
2022/07/03 10:37:57;;;;;;;1.67;0.60;;;24.30;99.90;;;;;;4990079;28;20901;-79
2022/07/03 10:46:29;;;;;;;5.07;1.00;;;24.40;99.80;;;;;;4989684;28;20496;-77
2022/07/03 10:49:01;;;;;;;4.60;0.73;;;24.60;99.90;;;;;;4989912;28;20050;-78
2022/07/03 10:51:28;;;;;;;4.90;0.73;;;24.90;99.90;;;;;;4972660;28;20101;-78
2022/07/03 10:54:17;;;;;;;6.15;0.80;;;24.70;99.90;;;;;;4989650;28;20524;-79
2022/07/03 10:56:57;;;;;;;3.25;0.70;;;24.50;99.60;;;;;;4987636;28;20050;-78
2022/07/03 10:59:46;;;;;;;4.57;0.80;;;24.60;99.90;;;;;;4989789;28;20035;-77
2022/07/03 11:02:27;;;;;;;2.17;0.70;;;24.70;99.90;;;;;;4909776;29;20067;-77
2022/07/03 11:05:01;;;;;;;5.03;1.40;;;24.80;99.90;;;;;;4910532;29;20156;-78
2022/07/03 11:07:34;;;;;;;3.78;1.00;;;25.10;99.90;;;;;;4894704;29;20115;-77
2022/07/03 11:10:09;;;;;;;4.18;0.90;;;25.30;99.90;;;;;;4910337;29;20439;-80
2022/07/03 11:12:53;;;;;;;3.47;1.17;;;25.20;99.90;;;;;;4910537;29;20056;-76
2022/07/03 11:15:29;;;;;;;3.42;0.70;;;25.00;99.90;;;;;;4926162;29;20138;-78
2022/07/03 11:18:12;;;;;;;3.30;0.68;;;25.20;99.90;;;;;;4952544;29;20043;-79
2022/07/03 11:20:58;;;;;;;6.80;1.02;;;25.20;99.90;;;;;;4957042;28;20050;-79
2022/07/03 11:23:29;;;;;;;4.35;1.35;;;24.90;99.40;;;;;;4932246;29;20063;-79
2022/07/03 11:26:00;;;;;;;8.35;1.38;;;24.90;99.90;;;;;;4936118;29;20431;-75
2022/07/03 11:28:52;;;;;;;4.88;1.13;;;24.80;99.90;;;;;;4951965;29;20055;-78
2022/07/03 11:31:21;;;;;;;3.53;0.85;;;24.90;99.90;;;;;;4897819;29;20052;-79
2022/07/03 11:33:55;;;;;;;2.92;0.80;;;24.70;99.90;;;;;;4905149;29;20074;-79
2022/07/03 11:36:32;;;;;;;3.92;1.05;;;24.60;99.90;;;;;;4932542;29;20598;-77
2022/07/03 11:38:57;;;;;;;7.25;1.05;;;24.70;99.90;;;;;;4925840;28;20058;-77
2022/07/03 11:41:28;;;;;;;4.68;0.70;;;24.70;99.90;;;;;;4990284;28;20629;-78
2022/07/03 11:43:55;;;;;;;3.58;0.80;;;24.50;99.90;;;;;;4972429;28;20517;-74
2022/07/03 11:46:26;;;;;;;6.05;1.15;;;24.10;99.90;;;;;;4990621;28;20046;-79
2022/07/03 11:49:11;;;;;;;3.22;0.77;;;23.70;99.90;;;;;;4991030;28;20469;-78
2022/07/03 11:51:39;;;;;;;6.95;0.80;;;23.90;99.90;;;;;;4990880;28;20046;-80
2022/07/03 11:54:06;;;;;;;6.15;0.88;;;24.10;99.90;;;;;;4990542;28;20046;-78
2022/07/03 11:56:32;;;;;;;4.13;1.08;;;24.10;99.90;;;;;;4989812;28;20062;-78
2022/07/03 11:59:00;;;;;;;3.17;0.95;;;24.30;99.90;;;;;;4990097;28;20045;-77
2022/07/03 12:01:25;;;;;;;15.02;1.42;;;24.10;99.90;;;;;;4990570;28;20069;-79
2022/07/03 12:04:09;;;;;;;9.10;1.25;;;24.20;99.90;;;;;;4990499;28;20058;-78
2022/07/03 12:06:40;;;;;;;8.02;1.55;;;24.50;99.90;;;;;;4990446;28;20054;-78
2022/07/03 12:09:16;;;;;;;11.07;1.70;;;24.50;99.90;;;;;;5009232;28;20066;-76
2022/07/03 12:11:54;;;;;;;5.38;1.33;;;24.40;99.90;;;;;;5012427;28;20125;-77
2022/07/03 12:14:49;;;;;;;5.93;0.98;;;24.70;99.90;;;;;;5010804;28;20060;-80
2022/07/03 12:17:24;;;;;;;4.90;1.20;;;24.50;99.90;;;;;;5027739;28;20057;-76
2022/07/03 12:19:53;;;;;;;6.75;1.33;;;24.40;99.90;;;;;;5011185;28;20053;-77
2022/07/03 12:22:28;;;;;;;6.25;1.20;;;24.30;99.90;;;;;;4995073;28;20046;-77
2022/07/03 12:25:01;;;;;;;7.20;1.23;;;23.80;99.90;;;;;;5012301;28;20064;-78
2022/07/03 12:27:27;;;;;;;4.35;0.93;;;23.50;99.90;;;;;;5012387;28;20117;-78
2022/07/03 12:29:54;;;;;;;4.43;0.90;;;23.30;99.90;;;;;;5012158;28;20100;-78
2022/07/03 12:32:26;;;;;;;4.20;1.25;;;23.00;99.90;;;;;;5012272;28;20041;-77
2022/07/03 12:34:55;;;;;;;6.00;0.80;;;23.10;99.90;;;;;;5011966;28;20401;-78
2022/07/03 12:37:35;;;;;;;4.32;0.93;;;23.40;99.90;;;;;;5010625;28;20108;-77
2022/07/03 12:40:05;;;;;;;8.60;1.05;;;23.70;99.90;;;;;;5011945;28;20065;-77
2022/07/03 12:42:41;;;;;;;5.20;1.10;;;24.00;99.90;;;;;;5010724;28;20054;-79
2022/07/03 12:45:13;;;;;;;5.45;1.33;;;24.00;99.90;;;;;;5011609;28;20069;-78
2022/07/03 12:47:38;;;;;;;3.65;1.00;;;24.30;99.90;;;;;;5012339;28;20042;-78
2022/07/03 12:50:06;;;;;;;3.47;0.77;;;24.60;99.90;;;;;;5012124;28;20046;-79
2022/07/03 12:52:33;;;;;;;3.95;0.88;;;24.60;99.90;;;;;;5012262;28;20042;-79
2022/07/03 12:55:01;;;;;;;2.67;0.80;;;24.70;99.90;;;;;;5012004;28;20061;-78
2022/07/03 13:00:17;;;;;;;3.72;0.73;;;24.60;99.90;;;;;;5011189;28;20057;-78
2022/07/03 13:02:44;;;;;;;2.63;0.70;;;24.20;99.90;;;;;;5010531;28;20073;-78
2022/07/03 13:05:23;;;;;;;4.53;0.63;;;24.00;99.90;;;;;;5011788;28;20046;-79
2022/07/03 13:07:51;;;;;;;4.90;0.98;;;23.90;99.90;;;;;;5011666;28;20056;-77
2022/07/03 13:10:21;;;;;;;7.28;0.80;;;23.90;99.90;;;;;;5011572;28;20049;-77
2022/07/03 13:12:51;;;;;;;6.50;0.60;;;23.80;99.90;;;;;;5010449;28;20390;-78
2022/07/03 13:15:19;;;;;;;0.85;0.50;;;23.70;99.90;;;;;;5009699;28;20496;-78
2022/07/03 13:17:54;;;;;;;3.15;0.85;;;23.50;99.90;;;;;;5011455;28;20105;-77